Paris, France
Current Conditions -  °F | °C
As of 10:00 PM on Thursday 23 Oct 2014 (Local Time) from LFPB Reporting Station
Overcast Overcast  
Wind Chill: 12°   Ceiling: 3800
Heat Index: 12°   Visibility: 6mi
Dew Point:   Wind: 5mph
Humidity: 77%   Direction: 230°SW
Pressure: 30.21"   Gusts: NA
Location:  48.86°N, 2.35°E
Report Text: LFPB 232000Z AUTO 23004KT 210V270 9999 OVC038 12/08 Q1023
Loading
Personal Weather Stations






























Interactive Weather Map
Tropical Storm Tracking
New forecast layout! Learn more

10-Day Weather Forecast

Advertisements
Track Severe Weather on mobile